Kings, Illinois
Current Conditions -  °F | °C
As of 6:55 PM on Tuesday 21 Oct 2014 (Local Time) from KRPJ Reporting Station
Overcast Overcast  
Wind Chill: 43°   Ceiling: 3100
Heat Index: 47°   Visibility: 10mi
Dew Point: 38°   Wind: 10mph
Humidity: 70%   Direction: 60°ENE
Pressure: 30.23"   Gusts: NA
Location:  41.9424°N, 89.0653°W
Report Text: KRPJ 212355Z AUTO 06009KT 10SM OVC031 09/03 A3023 RMK AO2 T00860034 10123 20082
Loading
Personal Weather Stations






























Interactive Weather Map
Tropical Storm Tracking
New forecast layout! Learn more

10-Day Weather Forecast

Advertisements
Track Severe Weather on mobile